»·PEaware :: WAT464 KAPV-KBFL

WAT464 :: KAPV-KBFL

FLIGHT INFORMATION

Flight Status: Arrived
Operator:
Walker Air Transport
More flights by this operator :: More flights under this callsign
Pilot: Jacob M. (32534)
Aircraft: BEECH AIRCRAFT BONANZA
(BE36)
More flights by this aircraft type
Origin: KAPV Apple Valley
United States
Destination: KBFL Meadows
United States
More flights between these airports :: More routes between these airports
Route: APLES V394 HESPE V137 PMD
File this flight plan on PilotEdge
Remarks: ZLA Alphabet Flight 1
Altitude:
(Current/Filed)
8,500ft
Speed:
(Current/Filed)
150kts
Departed: 23-Dec-20 08:06 PM
Arrived: 23-Dec-20 08:56 PM
Distance/Time
Traveled:
105nm/0:49
Distance/Time
To Go:
Arrived

Flight Plot

Page will automatically refresh every two minutes.

Flight plan parsing failed; only flown route is shown


Map Options




Map Legend


Flown Route
Filed Route
Departure Airport
Arrival Airport
Navaid (VOR, NDB)
Fix

Horizontal Profiles

Position Reports

Time Latitude Longitude Heading Altitude Ground
Speed
23-Dec-20 19:34 34.574475 -117.189589 269 2978ft 0kts
23-Dec-20 19:35 34.574475 -117.189589 269 2978ft 0kts
23-Dec-20 19:36 34.574475 -117.189588 269 2978ft 0kts
23-Dec-20 19:37 34.574475 -117.189588 269 2978ft 0kts
23-Dec-20 19:38 34.574475 -117.189588 269 2978ft 0kts
23-Dec-20 19:39 34.574475 -117.189589 269 2978ft 0kts
23-Dec-20 19:40 34.574475 -117.189589 269 2978ft 0kts
23-Dec-20 19:41 34.574475 -117.189589 269 2978ft 0kts
23-Dec-20 19:42 34.574475 -117.189589 269 2978ft 0kts
23-Dec-20 19:43 34.574475 -117.189589 269 2978ft 0kts
23-Dec-20 19:44 34.574475 -117.189589 269 2978ft 0kts
23-Dec-20 19:45 34.574475 -117.189586 269 2978ft 0kts
23-Dec-20 19:46 34.574475 -117.189589 269 2978ft 0kts
23-Dec-20 19:47 0.000408 0.013975 359 3ft 0kts
23-Dec-20 19:48 0.000408 0.013975 359 3ft 0kts
23-Dec-20 19:49 34.574450 -117.188894 322 2990ft 0kts
23-Dec-20 19:50 34.574449 -117.188894 322 2978ft 0kts
23-Dec-20 19:51 34.574449 -117.188894 322 2978ft 0kts
23-Dec-20 19:52 34.574449 -117.188894 323 2978ft 0kts
23-Dec-20 19:53 34.574449 -117.188894 322 2978ft 0kts
23-Dec-20 19:54 34.574449 -117.188894 322 2978ft 0kts
23-Dec-20 19:55 34.574449 -117.188894 322 2978ft 0kts
23-Dec-20 19:56 34.574449 -117.188894 322 2978ft 0kts
23-Dec-20 19:57 34.574449 -117.188894 322 2978ft 0kts
23-Dec-20 19:58 34.574449 -117.188894 322 2978ft 0kts
23-Dec-20 19:59 34.574449 -117.188894 323 2978ft 0kts
23-Dec-20 20:00 34.575774 -117.188042 19 2987ft 8kts
23-Dec-20 20:01 34.579552 -117.186723 15 3016ft 15kts
23-Dec-20 20:02 34.583432 -117.185372 15 3040ft 15kts
23-Dec-20 20:03 34.587559 -117.183868 47 3063ft 11kts
23-Dec-20 20:04 34.586078 -117.183069 194 3056ft 33kts
23-Dec-20 20:05 34.562027 -117.191289 197 3530ft 110kts
23-Dec-20 20:06 34.532896 -117.204416 197 4650ft 111kts
23-Dec-20 20:07 34.502634 -117.212842 194 5697ft 112kts
23-Dec-20 20:08 34.476900 -117.232770 228 6645ft 115kts
23-Dec-20 20:09 34.454830 -117.261921 224 7463ft 120kts
23-Dec-20 20:10 34.428938 -117.289314 219 8218ft 126kts
23-Dec-20 20:11 34.398691 -117.321818 222 8313ft 166kts
23-Dec-20 20:12 34.366804 -117.363399 243 8407ft 169kts
23-Dec-20 20:13 34.369403 -117.419265 272 8417ft 171kts
23-Dec-20 20:14 34.368851 -117.477190 288 8425ft 172kts
23-Dec-20 20:15 34.386322 -117.531174 302 8427ft 171kts
23-Dec-20 20:17 34.410462 -117.582459 304 8276ft 177kts
23-Dec-20 20:18 34.434051 -117.633160 305 8258ft 174kts
23-Dec-20 20:19 34.457847 -117.684645 305 8263ft 175kts
23-Dec-20 20:20 34.481499 -117.736071 305 8261ft 175kts
23-Dec-20 20:21 34.505342 -117.787919 305 8255ft 175kts
23-Dec-20 20:22 34.528860 -117.839210 306 8254ft 174kts
23-Dec-20 20:23 34.552175 -117.890257 305 8333ft 168kts
23-Dec-20 20:24 34.574910 -117.940322 305 8404ft 171kts
23-Dec-20 20:25 34.597746 -117.990715 305 8407ft 174kts
23-Dec-20 20:26 34.620653 -118.042074 305 8487ft 172kts
23-Dec-20 20:27 34.649782 -118.086467 327 8495ft 166kts
23-Dec-20 20:28 34.683014 -118.126677 325 8497ft 168kts
23-Dec-20 20:29 34.716263 -118.167375 323 8499ft 170kts
23-Dec-20 20:30 34.752476 -118.201178 342 8498ft 160kts
23-Dec-20 20:30 34.785923 -118.220845 343 8495ft 159kts
23-Dec-20 20:32 34.833185 -118.247215 343 8497ft 160kts
23-Dec-20 20:33 34.872596 -118.274195 334 8425ft 168kts
23-Dec-20 20:33 34.905167 -118.299738 334 8361ft 165kts
23-Dec-20 20:35 34.950374 -118.334748 333 8363ft 165kts
23-Dec-20 20:35 34.984538 -118.355253 343 8366ft 163kts
23-Dec-20 20:37 35.033433 -118.378862 344 8504ft 162kts
23-Dec-20 20:37 35.066387 -118.402123 325 8497ft 168kts
23-Dec-20 20:38 35.097826 -118.443272 290 8497ft 173kts
23-Dec-20 20:39 35.109723 -118.500346 284 8489ft 172kts
23-Dec-20 20:40 35.120744 -118.557244 284 8488ft 172kts
23-Dec-20 20:41 35.131724 -118.612951 284 8592ft 168kts
23-Dec-20 20:42 35.143171 -118.669420 283 8593ft 171kts
23-Dec-20 20:43 35.165718 -118.720079 309 8284ft 171kts
23-Dec-20 20:44 35.197376 -118.761558 315 7471ft 166kts
23-Dec-20 20:45 35.229892 -118.802353 314 6770ft 167kts
23-Dec-20 20:46 35.262366 -118.843017 315 6068ft 165kts
23-Dec-20 20:47 35.294731 -118.883503 315 5232ft 165kts
23-Dec-20 20:48 35.324693 -118.921006 315 4224ft 142kts
23-Dec-20 20:49 35.349830 -118.952519 314 3425ft 114kts
23-Dec-20 20:50 35.371244 -118.979623 312 2531ft 98kts
23-Dec-20 20:51 35.389380 -119.002035 312 1724ft 84kts
23-Dec-20 20:52 35.405462 -119.021817 313 1221ft 80kts
23-Dec-20 20:53 35.421195 -119.040904 312 761ft 78kts
23-Dec-20 20:54 35.435631 -119.058367 315 496ft 49kts
23-Dec-20 20:55 35.438210 -119.059874 65 494ft 0kts
23-Dec-20 20:56 35.438237 -119.059796 69 494ft 4kts
23-Dec-20 20:57 35.434141 -119.054296 135 486ft 32kts
23-Dec-20 20:58 35.432081 -119.049943 270 485ft 8kts
23-Dec-20 20:59 35.431978 -119.050145 225 485ft 0kts

Navigation Log

Ident Type
Flight plan parsing failed, navigation log unavailable